Time;durP1;ratioP1;P1;durP2;ratioP2;P2;SDS_P1;SDS_P2;PMS_P1;PMS_P2;Temp;Humidity;BMP_temperature;BMP_pressure;BME280_temperature;BME280_humidity;BME280_pressure;Samples;Min_cycle;Max_cycle;Signal;HPM_P1;HPM_P2
2022/01/28 13:01:40;;;;;;;14.20;4.38;;;5.30;99.90;;;;;;5070941;28;20974;-66
2022/01/28 13:04:12;;;;;;;15.88;4.20;;;5.30;99.90;;;;;;5070875;28;20177;-66
2022/01/28 13:06:43;;;;;;;12.77;4.07;;;5.20;99.90;;;;;;5069614;28;20181;-66
2022/01/28 13:09:13;;;;;;;12.77;4.20;;;5.20;99.90;;;;;;5070895;28;20222;-66
2022/01/28 13:11:42;;;;;;;10.57;4.07;;;5.10;99.90;;;;;;5071092;28;20214;-67
2022/01/28 13:14:08;;;;;;;7.53;3.75;;;5.10;99.90;;;;;;5071018;28;20168;-67
2022/01/28 13:16:35;;;;;;;9.40;4.38;;;5.00;99.90;;;;;;5070602;28;20628;-66
2022/01/28 13:19:03;;;;;;;9.48;3.13;;;5.00;99.90;;;;;;5070535;28;20602;-66
2022/01/28 13:21:29;;;;;;;9.73;5.38;;;4.90;99.90;;;;;;5070384;28;20200;-66
2022/01/28 13:24:10;;;;;;;12.55;4.40;;;4.90;99.90;;;;;;5070506;28;20165;-66
2022/01/28 13:26:56;;;;;;;10.32;4.97;;;4.90;99.90;;;;;;5070615;28;20221;-66
2022/01/28 13:29:32;;;;;;;16.75;4.13;;;4.90;99.90;;;;;;5066595;28;20199;-66
2022/01/28 13:32:00;;;;;;;11.00;4.45;;;5.00;99.90;;;;;;5070653;28;20650;-66
2022/01/28 13:34:25;;;;;;;14.07;3.70;;;5.30;99.90;;;;;;5070343;28;20271;-66
2022/01/28 13:36:53;;;;;;;13.68;3.55;;;5.60;99.90;;;;;;5070285;28;20644;-66
2022/01/28 13:39:21;;;;;;;8.38;3.38;;;5.80;99.90;;;;;;5070115;28;20188;-66
2022/01/28 13:41:51;;;;;;;10.15;3.20;;;5.90;99.90;;;;;;5070172;28;20248;-66
2022/01/28 13:44:20;;;;;;;13.85;3.92;;;6.00;99.90;;;;;;5070169;28;20185;-66
2022/01/28 13:46:54;;;;;;;8.75;2.63;;;6.10;99.90;;;;;;5070126;28;20180;-66
2022/01/28 13:49:22;;;;;;;4.22;2.95;;;6.00;99.90;;;;;;5070105;28;20179;-66
2022/01/28 13:51:49;;;;;;;10.55;3.17;;;6.00;99.90;;;;;;5069791;28;20246;-66
2022/01/28 13:54:20;;;;;;;19.13;3.60;;;6.00;99.90;;;;;;5069946;28;20164;-66
2022/01/28 13:56:47;;;;;;;9.10;2.40;;;6.00;99.90;;;;;;5069853;28;20152;-66
2022/01/28 13:59:24;;;;;;;10.68;3.20;;;5.90;99.90;;;;;;5069310;28;20176;-66
2022/01/28 14:01:52;;;;;;;11.93;3.88;;;5.90;99.90;;;;;;5069588;28;20215;-66
2022/01/28 14:04:27;;;;;;;11.10;2.80;;;5.90;99.90;;;;;;5069516;28;20168;-67
2022/01/28 14:07:12;;;;;;;11.80;3.45;;;5.70;99.90;;;;;;5069312;28;20613;-66
2022/01/28 14:10:00;;;;;;;13.55;3.63;;;5.50;99.90;;;;;;5069268;28;20651;-66
2022/01/28 14:12:52;;;;;;;10.27;3.22;;;5.50;99.90;;;;;;5059353;28;20173;-66
2022/01/28 14:15:33;;;;;;;10.77;2.97;;;5.50;99.90;;;;;;5056448;28;20574;-66
2022/01/28 14:18:02;;;;;;;15.70;3.85;;;5.50;99.90;;;;;;5056288;28;20181;-66
2022/01/28 14:20:27;;;;;;;14.18;3.25;;;5.60;99.90;;;;;;5054909;28;20589;-66
2022/01/28 14:22:54;;;;;;;10.27;3.95;;;5.70;99.90;;;;;;5056173;28;20177;-67
2022/01/28 14:25:21;;;;;;;22.60;5.40;;;5.90;99.90;;;;;;5054933;28;20185;-67
2022/01/28 14:28:00;;;;;;;11.55;2.80;;;6.00;99.90;;;;;;5055776;28;20662;-67
2022/01/28 14:30:38;;;;;;;13.55;4.32;;;6.10;99.90;;;;;;5056048;28;20197;-67
2022/01/28 14:33:04;;;;;;;14.90;2.92;;;5.90;99.90;;;;;;5055971;28;20165;-67
2022/01/28 14:35:30;;;;;;;6.38;2.85;;;5.70;99.90;;;;;;5056191;28;20231;-66
2022/01/28 14:37:56;;;;;;;8.93;3.00;;;5.50;99.90;;;;;;5056064;28;20792;-66
2022/01/28 14:40:21;;;;;;;10.15;2.83;;;5.40;99.90;;;;;;5055706;28;20207;-66
2022/01/28 14:42:47;;;;;;;9.82;3.58;;;5.30;99.90;;;;;;5055887;28;20169;-66
2022/01/28 14:45:13;;;;;;;10.95;4.13;;;5.20;99.90;;;;;;5055621;28;20169;-66
2022/01/28 14:47:39;;;;;;;8.90;3.05;;;5.20;99.90;;;;;;5055726;28;20191;-66
2022/01/28 14:50:06;;;;;;;10.77;2.88;;;5.30;99.90;;;;;;5055668;28;20619;-66
2022/01/28 14:52:32;;;;;;;4.18;3.25;;;5.60;99.90;;;;;;5055822;28;20174;-66
2022/01/28 14:54:58;;;;;;;9.75;3.75;;;5.80;99.90;;;;;;5055396;28;20248;-66
2022/01/28 14:57:26;;;;;;;12.77;3.53;;;6.10;99.90;;;;;;5055487;28;20479;-66
2022/01/28 14:59:53;;;;;;;10.35;3.22;;;6.10;99.90;;;;;;5055238;28;20217;-66
2022/01/28 15:02:26;;;;;;;14.10;3.58;;;6.10;99.90;;;;;;5055398;28;20161;-66
2022/01/28 15:04:56;;;;;;;14.75;3.70;;;6.00;99.90;;;;;;5055369;28;20204;-66
2022/01/28 15:07:25;;;;;;;10.15;3.35;;;5.90;99.90;;;;;;5055187;28;20165;-66
2022/01/28 15:09:54;;;;;;;7.28;3.58;;;5.90;99.90;;;;;;5055210;28;20634;-67
2022/01/28 15:12:19;;;;;;;11.65;3.40;;;5.70;99.90;;;;;;5055038;28;20196;-66
2022/01/28 15:14:45;;;;;;;3.78;3.03;;;5.60;99.90;;;;;;5053829;28;20205;-66
2022/01/28 15:17:10;;;;;;;14.23;3.67;;;5.50;99.90;;;;;;5054919;28;20272;-67
2022/01/28 15:19:36;;;;;;;5.85;2.58;;;5.40;99.90;;;;;;5054795;28;20201;-66
2022/01/28 15:22:02;;;;;;;10.30;3.03;;;5.30;99.90;;;;;;5053274;28;20172;-66
2022/01/28 15:24:28;;;;;;;12.18;2.60;;;5.20;99.90;;;;;;5053878;28;20248;-66
2022/01/28 15:26:54;;;;;;;6.63;3.17;;;5.10;99.90;;;;;;5054936;28;20161;-66
2022/01/28 15:35:22;;;;;;;13.85;3.33;;;5.00;99.90;;;;;;5054722;28;20173;-66
2022/01/28 15:37:46;;;;;;;10.38;2.53;;;5.00;99.90;;;;;;5054731;28;20222;-68
2022/01/28 15:40:12;;;;;;;11.98;2.92;;;5.00;99.90;;;;;;5053626;28;20193;-68
